createdAt,value
2019-03-20T00:00:32.539Z,13.00
2019-03-20T00:03:00.975Z,12.00
2019-03-20T00:05:29.470Z,9.43
2019-03-20T00:07:58.107Z,12.35
2019-03-20T00:10:26.624Z,14.13
2019-03-20T00:12:55.135Z,13.32
2019-03-20T00:15:23.581Z,13.58
2019-03-20T00:17:52.031Z,9.03
2019-03-20T00:20:20.463Z,8.80
2019-03-20T00:22:48.923Z,11.60
2019-03-20T00:25:17.367Z,11.03
2019-03-20T00:27:45.816Z,11.25
2019-03-20T00:30:19.087Z,10.75
2019-03-20T00:32:47.627Z,7.28
2019-03-20T00:35:16.069Z,13.10
2019-03-20T00:37:44.507Z,15.55
2019-03-20T00:40:17.782Z,9.85
2019-03-20T00:42:46.231Z,13.75
2019-03-20T00:45:16.128Z,12.33
2019-03-20T00:47:44.659Z,12.40
2019-03-20T00:50:17.807Z,12.30
2019-03-20T00:52:46.333Z,9.78
2019-03-20T00:55:18.234Z,10.82
2019-03-20T00:57:47.140Z,11.65
2019-03-20T01:00:23.282Z,12.15
2019-03-20T01:02:51.759Z,8.80
2019-03-20T01:05:21.308Z,11.08
2019-03-20T01:07:49.865Z,9.57
2019-03-20T01:10:19.339Z,12.82
2019-03-20T01:12:47.780Z,12.63
2019-03-20T01:15:16.468Z,12.93
2019-03-20T01:17:45.450Z,6.10
2019-03-20T01:20:24.769Z,7.45
2019-03-20T01:22:53.278Z,7.67
2019-03-20T01:25:21.738Z,13.58
2019-03-20T01:27:50.178Z,18.37
2019-03-20T01:30:39.391Z,10.82
2019-03-20T01:33:09.944Z,11.27
2019-03-20T01:35:38.634Z,8.80
2019-03-20T01:38:08.175Z,16.45
2019-03-20T01:40:36.715Z,12.47
2019-03-20T01:43:05.892Z,13.90
2019-03-20T01:45:34.399Z,8.48
2019-03-20T01:48:02.861Z,18.57
2019-03-20T01:50:31.307Z,8.18
2019-03-20T01:53:00.038Z,13.83
2019-03-20T01:55:28.483Z,7.15
2019-03-20T01:57:56.923Z,18.23
2019-03-20T02:00:25.567Z,12.65
2019-03-20T02:02:54.132Z,15.55
2019-03-20T02:05:22.586Z,12.98
2019-03-20T02:07:51.037Z,8.68
2019-03-20T02:10:19.475Z,10.43
2019-03-20T02:12:47.927Z,10.30
2019-03-20T02:15:39.259Z,7.25
2019-03-20T02:18:05.881Z,10.23
2019-03-20T02:20:34.323Z,11.38
2019-03-20T02:23:02.767Z,8.98
2019-03-20T02:25:32.405Z,8.05
2019-03-20T02:30:28.677Z,18.55
2019-03-20T02:32:57.116Z,10.75
2019-03-20T02:35:25.580Z,8.15
2019-03-20T02:37:54.024Z,11.68
2019-03-20T02:40:22.509Z,13.65
2019-03-20T02:42:50.991Z,16.17
2019-03-20T02:45:19.434Z,16.23
2019-03-20T02:47:47.884Z,18.42
2019-03-20T02:50:16.332Z,10.40
2019-03-20T02:52:44.797Z,12.68
2019-03-20T02:55:13.676Z,13.30
2019-03-20T02:57:42.234Z,11.73
2019-03-20T03:00:17.778Z,10.80
2019-03-20T03:02:46.363Z,13.60
2019-03-20T03:05:15.711Z,8.38
2019-03-20T03:07:44.249Z,17.53
2019-03-20T03:10:17.428Z,16.52
2019-03-20T03:12:45.908Z,10.82
2019-03-20T03:15:15.397Z,11.43
2019-03-20T03:17:43.989Z,15.70
2019-03-20T03:20:13.744Z,24.70
2019-03-20T03:23:01.556Z,15.38
2019-03-20T03:25:30.060Z,15.80
2019-03-20T03:27:58.532Z,11.28
2019-03-20T03:30:26.982Z,17.15
2019-03-20T03:32:55.519Z,14.93
2019-03-20T03:35:24.043Z,19.07
2019-03-20T03:37:52.491Z,16.62
2019-03-20T03:40:21.075Z,23.55
2019-03-20T03:42:49.531Z,14.90
2019-03-20T03:45:17.995Z,20.97
2019-03-20T03:47:46.679Z,29.00
2019-03-20T03:50:15.833Z,26.00
2019-03-20T03:52:44.457Z,21.20
2019-03-20T03:55:14.384Z,21.85
2019-03-20T03:57:43.088Z,24.90
2019-03-20T04:00:14.617Z,19.40
2019-03-20T04:02:43.141Z,22.10
2019-03-20T04:05:11.672Z,29.87
2019-03-20T04:07:40.120Z,28.98
2019-03-20T04:10:11.509Z,22.82
2019-03-20T04:12:39.983Z,22.15
2019-03-20T04:15:11.172Z,21.57
2019-03-20T04:17:39.608Z,32.45
2019-03-20T04:20:13.123Z,26.77
2019-03-20T04:22:41.575Z,28.83
2019-03-20T04:25:11.057Z,29.32
2019-03-20T04:27:39.510Z,24.17
2019-03-20T04:30:11.143Z,27.22
2019-03-20T04:32:39.589Z,24.37
2019-03-20T04:35:08.901Z,24.67
2019-03-20T04:37:37.404Z,30.87
2019-03-20T04:40:08.769Z,35.78
2019-03-20T04:42:37.222Z,32.40
2019-03-20T04:45:08.651Z,33.38
2019-03-20T04:47:37.108Z,41.98
2019-03-20T04:50:08.633Z,33.53
2019-03-20T04:52:37.158Z,34.15
2019-03-20T04:55:06.985Z,41.70
2019-03-20T04:57:35.491Z,32.08
2019-03-20T05:00:17.728Z,35.60
2019-03-20T05:02:46.178Z,37.83
2019-03-20T05:05:14.643Z,29.10
2019-03-20T05:07:43.078Z,41.58
2019-03-20T05:10:16.520Z,35.00
2019-03-20T05:12:44.979Z,35.20
2019-03-20T05:15:14.295Z,32.00
2019-03-20T05:17:42.734Z,39.13
2019-03-20T05:20:13.131Z,36.50
2019-03-20T05:22:41.578Z,35.65
2019-03-20T05:25:10.165Z,34.88
2019-03-20T05:27:38.630Z,38.30
2019-03-20T05:30:10.422Z,37.63
2019-03-20T05:32:38.883Z,34.98
2019-03-20T05:35:08.665Z,33.13
2019-03-20T05:37:37.123Z,41.60
2019-03-20T05:40:32.109Z,39.92
2019-03-20T05:43:00.623Z,40.58
2019-03-20T05:45:29.103Z,31.93
2019-03-20T05:47:57.550Z,45.63
2019-03-20T05:50:26.023Z,33.83
2019-03-20T05:52:54.481Z,39.73
2019-03-20T05:55:22.923Z,39.13
2019-03-20T05:57:51.399Z,40.95
2019-03-20T06:00:24.707Z,39.58
2019-03-20T06:02:53.155Z,40.20
2019-03-20T06:05:23.239Z,44.75
2019-03-20T06:07:51.773Z,36.90
2019-03-20T06:10:20.244Z,39.08
2019-03-20T06:12:48.734Z,30.57
2019-03-20T06:15:17.250Z,50.15
2019-03-20T06:17:46.824Z,41.30
2019-03-20T06:20:15.720Z,45.00
2019-03-20T06:22:44.456Z,37.95
2019-03-20T06:25:14.344Z,39.70
2019-03-20T06:27:42.916Z,36.30
2019-03-20T06:30:20.474Z,39.05
2019-03-20T06:32:49.003Z,40.35
2019-03-20T06:35:17.463Z,36.40
2019-03-20T06:37:45.934Z,46.00
2019-03-20T06:40:15.520Z,42.98
2019-03-20T06:42:44.035Z,41.70
2019-03-20T06:45:22.865Z,48.20
2019-03-20T06:47:51.380Z,42.45
2019-03-20T06:50:23.368Z,48.87
2019-03-20T06:52:51.894Z,41.10
2019-03-20T06:55:20.396Z,49.25
2019-03-20T06:57:48.883Z,47.50
2019-03-20T07:00:43.183Z,42.60
2019-03-20T07:03:23.546Z,44.27
2019-03-20T07:06:11.285Z,40.58
2019-03-20T07:08:45.739Z,44.23
2019-03-20T07:11:13.992Z,48.98
2019-03-20T07:13:42.463Z,51.90
2019-03-20T07:16:10.934Z,42.40
2019-03-20T07:18:39.391Z,51.95
2019-03-20T07:21:07.855Z,41.02
2019-03-20T07:23:36.347Z,42.10
2019-03-20T07:26:05.363Z,50.98
2019-03-20T07:28:33.813Z,47.00
2019-03-20T07:31:02.263Z,46.23
2019-03-20T07:33:30.717Z,45.38
2019-03-20T07:35:59.187Z,47.05
2019-03-20T07:38:27.652Z,48.35
2019-03-20T07:40:56.097Z,48.63
2019-03-20T07:43:26.857Z,47.20
2019-03-20T07:45:54.832Z,41.83
2019-03-20T07:48:23.275Z,50.63
2019-03-20T07:50:51.768Z,43.83
2019-03-20T07:53:20.207Z,42.93
2019-03-20T07:55:48.648Z,38.20
2019-03-20T07:58:17.097Z,43.13
2019-03-20T08:00:45.565Z,41.08
2019-03-20T08:03:14.107Z,42.30
2019-03-20T08:05:42.548Z,46.63
2019-03-20T08:08:10.992Z,45.35
2019-03-20T08:10:40.581Z,45.52
2019-03-20T08:13:09.125Z,45.92
2019-03-20T08:15:37.581Z,48.63
2019-03-20T08:18:06.032Z,46.05
2019-03-20T08:20:34.481Z,47.90
2019-03-20T08:23:02.926Z,48.25
2019-03-20T08:25:31.396Z,52.25
2019-03-20T08:27:59.845Z,43.45
2019-03-20T08:30:28.325Z,49.67
2019-03-20T08:32:56.784Z,54.80
2019-03-20T08:35:25.218Z,45.03
2019-03-20T08:37:53.718Z,48.20
2019-03-20T08:40:22.226Z,54.38
2019-03-20T08:42:50.678Z,44.80
2019-03-20T08:45:19.367Z,50.50
2019-03-20T08:47:47.836Z,45.67
2019-03-20T08:50:23.943Z,41.53
2019-03-20T08:52:52.392Z,46.63
2019-03-20T08:55:21.810Z,39.45
2019-03-20T08:57:50.325Z,44.23
2019-03-20T09:00:21.376Z,40.28
2019-03-20T09:02:50.456Z,42.60
2019-03-20T09:05:18.914Z,42.08
2019-03-20T09:07:47.866Z,40.52
2019-03-20T09:10:26.610Z,41.50
2019-03-20T09:12:55.064Z,38.67
2019-03-20T09:15:23.663Z,37.48
2019-03-20T09:17:52.179Z,41.02
2019-03-20T09:20:24.352Z,43.50
2019-03-20T09:22:52.839Z,36.77
2019-03-20T09:25:25.748Z,44.08
2019-03-20T09:27:54.214Z,40.40
2019-03-20T09:30:26.412Z,37.08
2019-03-20T09:32:54.933Z,41.13
2019-03-20T09:35:23.424Z,39.70
2019-03-20T09:37:52.773Z,41.25
2019-03-20T09:40:23.826Z,38.77
2019-03-20T09:42:52.598Z,43.95
2019-03-20T09:45:23.148Z,38.25
2019-03-20T09:47:51.647Z,41.55
2019-03-20T09:50:24.289Z,41.33
2019-03-20T09:52:52.881Z,39.00
2019-03-20T09:55:21.389Z,39.63
2019-03-20T09:57:49.918Z,39.70
2019-03-20T10:00:28.502Z,45.67
2019-03-20T10:02:57.030Z,36.38
2019-03-20T10:05:25.544Z,42.03
2019-03-20T10:07:54.013Z,38.67
2019-03-20T10:10:26.252Z,34.73
2019-03-20T10:12:54.723Z,41.10
2019-03-20T10:15:26.992Z,38.35
2019-03-20T10:17:55.588Z,34.67
2019-03-20T10:20:24.238Z,37.30
2019-03-20T10:22:52.748Z,38.90
2019-03-20T10:25:21.227Z,37.53
2019-03-20T10:27:51.841Z,37.83
2019-03-20T10:30:21.697Z,43.75
2019-03-20T10:32:50.219Z,39.70
2019-03-20T10:35:18.847Z,39.27
2019-03-20T10:37:47.310Z,37.08
2019-03-20T10:40:21.761Z,39.90
2019-03-20T10:42:50.302Z,42.25
2019-03-20T10:45:19.786Z,39.30
2019-03-20T10:47:48.480Z,47.40
2019-03-20T10:50:21.441Z,35.25
2019-03-20T10:52:49.972Z,41.68
2019-03-20T10:55:18.574Z,39.60
2019-03-20T10:57:47.067Z,40.90
2019-03-20T11:00:25.707Z,38.40
2019-03-20T11:05:36.448Z,37.23
2019-03-20T11:08:04.959Z,46.13
2019-03-20T11:10:33.672Z,49.90
2019-03-20T11:13:02.131Z,43.35
2019-03-20T11:15:30.588Z,41.50
2019-03-20T11:17:59.074Z,41.13
2019-03-20T11:20:27.647Z,49.10
2019-03-20T11:22:56.176Z,41.83
2019-03-20T11:25:28.154Z,43.48
2019-03-20T11:27:56.688Z,42.45
2019-03-20T11:30:29.698Z,39.92
2019-03-20T11:32:58.222Z,43.75
2019-03-20T11:35:26.748Z,38.90
2019-03-20T11:37:55.204Z,45.30
2019-03-20T11:40:31.454Z,43.00
2019-03-20T11:42:59.914Z,39.33
2019-03-20T11:45:28.436Z,46.75
2019-03-20T11:47:56.915Z,45.45
2019-03-20T11:50:30.195Z,45.38
2019-03-20T11:52:58.639Z,41.33
2019-03-20T11:55:27.095Z,42.15
2019-03-20T11:57:55.615Z,45.08
2019-03-20T12:00:24.672Z,48.92
2019-03-20T12:02:53.138Z,47.50
2019-03-20T12:05:21.643Z,41.10
2019-03-20T12:07:50.103Z,41.75
2019-03-20T12:10:21.167Z,46.95
2019-03-20T12:12:49.823Z,41.20
2019-03-20T12:15:18.350Z,47.15
2019-03-20T12:17:46.891Z,45.83
2019-03-20T12:20:23.123Z,43.17
2019-03-20T12:22:52.112Z,47.55
2019-03-20T12:25:25.833Z,49.60
2019-03-20T12:27:54.383Z,49.58
2019-03-20T12:30:36.496Z,43.92
2019-03-20T12:33:05.983Z,52.93
2019-03-20T12:35:42.655Z,42.10
2019-03-20T12:38:14.766Z,45.67
2019-03-20T12:40:41.283Z,42.40
2019-03-20T12:43:09.729Z,43.15
2019-03-20T12:45:39.224Z,50.65
2019-03-20T12:48:11.906Z,42.07
2019-03-20T12:50:40.375Z,43.63
2019-03-20T12:53:12.100Z,45.75
2019-03-20T12:55:40.555Z,48.35
2019-03-20T12:58:09.034Z,51.37
2019-03-20T13:00:37.496Z,51.90
2019-03-20T13:03:05.951Z,48.78
2019-03-20T13:05:34.414Z,58.20
2019-03-20T13:08:06.025Z,39.08
2019-03-20T13:10:33.036Z,45.98
2019-03-20T13:13:01.526Z,40.50
2019-03-20T13:15:30.037Z,52.08
2019-03-20T13:17:58.487Z,50.88
2019-03-20T13:20:27.893Z,42.90
2019-03-20T13:23:08.100Z,52.50
2019-03-20T13:25:36.548Z,55.35
2019-03-20T13:28:05.095Z,47.03
2019-03-20T13:30:49.034Z,50.98
2019-03-20T13:33:25.810Z,52.88
2019-03-20T13:35:47.897Z,44.83
2019-03-20T13:38:16.392Z,51.35
2019-03-20T13:40:44.910Z,57.58
2019-03-20T13:43:13.366Z,55.05
2019-03-20T13:45:41.883Z,49.58
2019-03-20T13:48:10.374Z,51.85
2019-03-20T13:50:38.826Z,51.15
2019-03-20T13:53:07.271Z,46.90
2019-03-20T13:55:35.728Z,56.18
2019-03-20T13:58:04.257Z,53.28
2019-03-20T14:00:32.712Z,48.98
2019-03-20T14:03:01.187Z,58.08
2019-03-20T14:05:29.662Z,49.80
2019-03-20T14:07:58.281Z,57.38
2019-03-20T14:10:28.292Z,55.45
2019-03-20T14:12:56.743Z,59.08
2019-03-20T14:15:25.195Z,51.30
2019-03-20T14:17:53.658Z,53.52
2019-03-20T14:20:29.711Z,47.58
2019-03-20T14:22:58.350Z,51.15
2019-03-20T14:25:26.791Z,53.35
2019-03-20T14:27:55.318Z,50.38
2019-03-20T14:30:26.835Z,57.10
2019-03-20T14:32:55.435Z,56.23
2019-03-20T14:35:23.981Z,57.00
2019-03-20T14:37:52.698Z,50.92
2019-03-20T14:40:36.248Z,56.88
2019-03-20T14:43:02.479Z,55.20
2019-03-20T14:45:31.023Z,60.15
2019-03-20T14:47:59.564Z,57.88
2019-03-20T14:50:33.078Z,46.00
2019-03-20T14:53:01.610Z,54.15
2019-03-20T14:55:50.510Z,53.10
2019-03-20T14:58:18.974Z,50.28
2019-03-20T15:00:47.690Z,57.40
2019-03-20T15:03:16.289Z,56.60
2019-03-20T15:05:44.731Z,51.92
2019-03-20T15:08:13.174Z,60.48
2019-03-20T15:10:45.903Z,56.35
2019-03-20T15:15:48.735Z,53.20
2019-03-20T15:18:17.179Z,58.65
2019-03-20T15:20:45.639Z,60.50
2019-03-20T15:23:14.104Z,60.25
2019-03-20T15:25:43.626Z,54.30
2019-03-20T15:28:12.108Z,62.03
2019-03-20T15:30:40.611Z,53.87
2019-03-20T15:33:09.126Z,53.70
2019-03-20T15:35:37.702Z,50.65
2019-03-20T15:38:06.192Z,57.80
2019-03-20T15:40:34.674Z,50.85
2019-03-20T15:43:03.137Z,52.95
2019-03-20T15:45:31.667Z,49.75
2019-03-20T15:48:00.118Z,59.88
2019-03-20T15:50:28.742Z,53.28
2019-03-20T15:52:57.336Z,52.60
2019-03-20T15:55:36.666Z,55.28
2019-03-20T15:58:05.260Z,61.00
2019-03-20T16:00:33.721Z,59.05
2019-03-20T16:03:08.156Z,55.05
2019-03-20T16:05:36.611Z,56.50
2019-03-20T16:08:05.210Z,58.05
2019-03-20T16:10:33.705Z,61.95
2019-03-20T16:13:02.159Z,49.03
2019-03-20T16:15:30.629Z,58.23
2019-03-20T16:17:59.240Z,57.53
2019-03-20T16:20:27.786Z,55.05
2019-03-20T16:22:56.223Z,53.42
2019-03-20T16:25:25.183Z,56.80
2019-03-20T16:27:53.668Z,56.65
2019-03-20T16:30:26.480Z,57.65
2019-03-20T16:32:56.483Z,58.95
2019-03-20T16:37:53.014Z,67.00
2019-03-20T16:40:24.014Z,62.98
2019-03-20T16:42:52.867Z,62.30
2019-03-20T16:45:24.027Z,60.10
2019-03-20T16:47:52.527Z,55.23
2019-03-20T16:50:21.078Z,53.33
2019-03-20T16:52:49.535Z,63.90
2019-03-20T16:55:18.055Z,57.53
2019-03-20T16:57:46.523Z,64.72
2019-03-20T17:00:38.889Z,63.58
2019-03-20T17:03:07.362Z,64.92
2019-03-20T17:05:35.803Z,63.45
2019-03-20T17:08:04.340Z,61.80
2019-03-20T17:10:38.346Z,70.72
2019-03-20T17:13:06.894Z,58.85
2019-03-20T17:15:37.194Z,61.48
2019-03-20T17:18:07.128Z,64.32
2019-03-20T17:20:35.589Z,67.00
2019-03-20T17:23:05.089Z,63.15
2019-03-20T17:25:33.651Z,66.67
2019-03-20T17:28:02.104Z,62.38
2019-03-20T17:30:41.030Z,63.13
2019-03-20T17:33:09.528Z,62.73
2019-03-20T17:35:37.980Z,71.90
2019-03-20T17:38:06.449Z,60.67
2019-03-20T17:40:34.968Z,66.10
2019-03-20T17:43:04.665Z,64.92
2019-03-20T17:45:33.559Z,60.12
2019-03-20T17:48:02.023Z,72.95
2019-03-20T17:50:32.049Z,68.45
2019-03-20T17:53:01.574Z,72.17
2019-03-20T17:55:30.014Z,67.03
2019-03-20T17:57:58.460Z,62.95
2019-03-20T18:00:46.927Z,57.60
2019-03-20T18:03:15.447Z,62.62
2019-03-20T18:05:43.929Z,56.85
2019-03-20T18:08:12.384Z,67.35
2019-03-20T18:10:40.928Z,53.45
2019-03-20T18:13:09.490Z,60.17
2019-03-20T18:15:37.934Z,74.03
2019-03-20T18:18:07.758Z,60.38
2019-03-20T18:20:36.839Z,65.97
2019-03-20T18:23:05.556Z,63.50
2019-03-20T18:25:34.003Z,63.78
2019-03-20T18:28:02.508Z,59.85
2019-03-20T18:30:33.856Z,64.70
2019-03-20T18:33:02.297Z,64.55
2019-03-20T18:35:30.775Z,51.77
2019-03-20T18:37:59.581Z,61.20
2019-03-20T18:40:28.387Z,62.78
2019-03-20T18:42:56.835Z,70.25
2019-03-20T18:45:26.899Z,61.85
2019-03-20T18:47:55.626Z,65.57
2019-03-20T18:50:24.911Z,54.85
2019-03-20T18:52:53.841Z,63.60
2019-03-20T18:55:22.290Z,69.97
2019-03-20T18:57:50.916Z,64.60
2019-03-20T19:00:24.588Z,58.63
2019-03-20T19:02:55.070Z,63.42
2019-03-20T19:05:29.264Z,63.65
2019-03-20T19:07:57.747Z,68.37
2019-03-20T19:10:26.291Z,71.55
2019-03-20T19:12:54.831Z,62.40
2019-03-20T19:15:23.296Z,62.45
2019-03-20T19:17:51.858Z,61.70
2019-03-20T19:20:20.323Z,68.37
2019-03-20T19:22:48.798Z,63.08
2019-03-20T19:25:17.731Z,66.90
2019-03-20T19:27:46.331Z,71.75
2019-03-20T19:30:25.389Z,60.80
2019-03-20T19:32:53.934Z,68.03
2019-03-20T19:35:22.389Z,71.12
2019-03-20T19:37:50.872Z,60.00
2019-03-20T19:40:21.606Z,68.30
2019-03-20T19:42:50.128Z,71.82
2019-03-20T19:45:19.111Z,68.85
2019-03-20T19:47:47.757Z,71.70
2019-03-20T19:50:17.911Z,67.50
2019-03-20T19:52:46.367Z,64.47
2019-03-20T19:55:18.544Z,68.37
2019-03-20T19:57:47.352Z,67.32
2019-03-20T20:00:26.192Z,65.87
2019-03-20T20:02:54.720Z,67.03
2019-03-20T20:05:23.278Z,69.22
2019-03-20T20:07:51.723Z,77.40
2019-03-20T20:10:20.642Z,71.85
2019-03-20T20:12:49.163Z,67.08
2019-03-20T20:15:35.131Z,66.87
2019-03-20T20:18:03.592Z,63.55
2019-03-20T20:20:36.472Z,71.07
2019-03-20T20:23:05.033Z,67.95
2019-03-20T20:25:33.572Z,65.03
2019-03-20T20:28:02.028Z,68.90
2019-03-20T20:30:30.475Z,63.02
2019-03-20T20:32:58.932Z,67.50
2019-03-20T20:35:27.397Z,71.90
2019-03-20T20:37:55.842Z,79.22
2019-03-20T20:40:31.359Z,70.35
2019-03-20T20:42:59.881Z,71.25
2019-03-20T20:45:28.342Z,74.53
2019-03-20T20:47:57.070Z,70.78
2019-03-20T20:50:25.543Z,75.35
2019-03-20T20:52:54.091Z,72.50
2019-03-20T20:55:23.375Z,81.57
2019-03-20T20:57:51.825Z,63.77
2019-03-20T21:00:27.286Z,74.87
2019-03-20T21:02:55.744Z,73.22
2019-03-20T21:05:24.264Z,77.30
2019-03-20T21:07:52.809Z,70.40
2019-03-20T21:10:22.114Z,68.97
2019-03-20T21:12:56.096Z,77.15
2019-03-20T21:15:37.915Z,73.55
2019-03-20T21:18:15.180Z,67.92
2019-03-20T21:20:44.574Z,70.10
2019-03-20T21:23:38.895Z,74.47
2019-03-20T21:26:08.907Z,76.12
2019-03-20T21:28:52.264Z,66.28
2019-03-20T21:31:29.679Z,69.45
2019-03-20T21:34:20.825Z,70.50
2019-03-20T21:37:01.364Z,70.37
2019-03-20T21:42:27.168Z,67.70
2019-03-20T21:45:15.011Z,72.72
2019-03-20T21:47:43.479Z,73.67
2019-03-20T21:50:49.469Z,72.20
2019-03-20T21:53:26.637Z,78.85
2019-03-20T21:56:23.515Z,70.42
2019-03-20T21:59:16.003Z,79.20
2019-03-20T22:01:58.751Z,72.53
2019-03-20T22:04:27.212Z,80.57
2019-03-20T22:07:11.713Z,87.70
2019-03-20T22:09:52.027Z,80.57
2019-03-20T22:12:32.731Z,72.27
2019-03-20T22:15:07.208Z,75.05
2019-03-20T22:18:11.937Z,78.85
2019-03-20T22:20:43.487Z,78.22
2019-03-20T22:23:20.879Z,80.22
2019-03-20T22:25:58.300Z,85.28
2019-03-20T22:28:46.379Z,64.45
2019-03-20T22:31:14.861Z,80.25
2019-03-20T22:34:19.738Z,79.77
2019-03-20T22:36:48.199Z,80.10
2019-03-20T22:39:53.224Z,81.60
2019-03-20T22:42:24.739Z,73.97
2019-03-20T22:44:56.263Z,82.42
2019-03-20T22:47:50.188Z,83.75
2019-03-20T22:50:24.443Z,88.20
2019-03-20T22:53:01.575Z,85.12
2019-03-20T22:56:01.365Z,79.27
2019-03-20T22:58:46.108Z,77.08
2019-03-20T23:01:31.914Z,81.60
2019-03-20T23:04:06.170Z,92.95
2019-03-20T23:06:34.647Z,80.28
2019-03-20T23:09:03.279Z,86.42
2019-03-20T23:11:31.723Z,89.72
2019-03-20T23:14:00.177Z,93.85
2019-03-20T23:16:28.630Z,96.70
2019-03-20T23:18:57.102Z,98.22
2019-03-20T23:21:25.619Z,91.25
2019-03-20T23:23:54.077Z,88.97
2019-03-20T23:26:22.537Z,91.50
2019-03-20T23:28:50.991Z,93.30
2019-03-20T23:31:19.453Z,90.90
2019-03-20T23:33:47.942Z,93.80
2019-03-20T23:36:16.399Z,99.30
2019-03-20T23:38:44.856Z,93.95
2019-03-20T23:41:13.366Z,104.60
2019-03-20T23:43:52.200Z,95.85
2019-03-20T23:46:12.001Z,102.73
2019-03-20T23:48:43.587Z,105.63
2019-03-20T23:51:15.375Z,97.83
2019-03-20T23:53:46.627Z,111.15
2019-03-20T23:56:15.154Z,104.23
2019-03-20T23:58:43.676Z,118.47
